createdAt,value
2022-11-16T00:00:13.723Z,61.58
2022-11-16T00:00:35.618Z,60.00
2022-11-16T00:01:02.063Z,56.50
2022-11-16T00:01:26.291Z,60.08
2022-11-16T00:01:48.367Z,59.22
2022-11-16T00:02:11.235Z,56.33
2022-11-16T00:02:33.137Z,53.03
2022-11-16T00:02:55.084Z,57.85
2022-11-16T00:03:17.257Z,59.58
2022-11-16T00:03:39.381Z,62.78
2022-11-16T00:04:02.337Z,59.97
2022-11-16T00:04:24.176Z,57.35
2022-11-16T00:04:46.408Z,60.33
2022-11-16T00:05:08.540Z,58.58
2022-11-16T00:05:30.712Z,60.42
2022-11-16T00:05:59.765Z,55.53
2022-11-16T00:06:22.696Z,56.35
2022-11-16T00:06:45.832Z,54.78
2022-11-16T00:07:07.784Z,54.97
2022-11-16T00:07:29.849Z,60.15
2022-11-16T00:07:52.063Z,63.10
2022-11-16T00:08:13.863Z,61.25
2022-11-16T00:08:42.432Z,58.58
2022-11-16T00:09:22.769Z,56.92
2022-11-16T00:09:44.521Z,59.15
2022-11-16T00:10:06.973Z,54.88
2022-11-16T00:10:28.736Z,57.72
2022-11-16T00:10:50.645Z,58.47
2022-11-16T00:11:14.887Z,57.83
2022-11-16T00:11:38.232Z,62.17
2022-11-16T00:12:02.253Z,61.63
2022-11-16T00:12:24.070Z,56.95
2022-11-16T00:12:45.892Z,57.65
2022-11-16T00:13:07.621Z,56.25
2022-11-16T00:13:29.388Z,56.80
2022-11-16T00:13:51.558Z,56.05
2022-11-16T00:14:13.419Z,57.97
2022-11-16T00:14:36.279Z,58.30
2022-11-16T00:14:58.095Z,54.67
2022-11-16T00:15:20.341Z,54.05
2022-11-16T00:15:42.094Z,54.92
2022-11-16T00:16:04.970Z,54.70
2022-11-16T00:16:27.310Z,51.67
2022-11-16T00:16:49.535Z,48.88
2022-11-16T00:17:11.280Z,53.90
2022-11-16T00:17:33.315Z,58.42
2022-11-16T00:17:55.070Z,57.42
2022-11-16T00:18:16.813Z,53.80
2022-11-16T00:18:38.579Z,52.72
2022-11-16T00:19:03.383Z,58.00
2022-11-16T00:19:25.991Z,55.53
2022-11-16T00:19:48.575Z,57.17
2022-11-16T00:20:10.829Z,54.75
2022-11-16T00:20:32.637Z,51.75
2022-11-16T00:20:54.659Z,51.05
2022-11-16T00:21:16.640Z,51.20
2022-11-16T00:21:39.882Z,52.75
2022-11-16T00:22:01.743Z,52.58
2022-11-16T00:22:23.525Z,50.83
2022-11-16T00:22:45.280Z,52.88
2022-11-16T00:23:07.468Z,50.60
2022-11-16T00:23:29.224Z,53.63
2022-11-16T00:23:51.567Z,53.20
2022-11-16T00:24:15.286Z,51.35
2022-11-16T00:24:37.456Z,54.47
2022-11-16T00:24:59.255Z,59.72
2022-11-16T00:25:21.066Z,52.40
2022-11-16T00:25:44.683Z,52.97
2022-11-16T00:26:08.789Z,47.38
2022-11-16T00:26:30.615Z,48.28
2022-11-16T00:26:54.591Z,50.45
2022-11-16T00:27:16.464Z,50.03
2022-11-16T00:27:38.253Z,51.17
2022-11-16T00:28:00.475Z,53.38
2022-11-16T00:28:22.358Z,52.83
2022-11-16T00:28:44.195Z,54.75
2022-11-16T00:29:07.528Z,53.88
2022-11-16T00:29:29.306Z,52.47
2022-11-16T00:29:51.056Z,48.47
2022-11-16T00:30:13.316Z,49.58
2022-11-16T00:30:35.121Z,51.90
2022-11-16T00:31:00.860Z,51.38
2022-11-16T00:31:23.457Z,50.67
2022-11-16T00:31:46.162Z,49.55
2022-11-16T00:32:08.142Z,50.90
2022-11-16T00:32:29.956Z,55.95
2022-11-16T00:32:52.085Z,50.08
2022-11-16T00:33:16.436Z,49.22
2022-11-16T00:33:39.446Z,50.70
2022-11-16T00:34:01.229Z,51.78
2022-11-16T00:34:24.251Z,52.03
2022-11-16T00:34:45.982Z,48.63
2022-11-16T00:35:08.518Z,49.83
2022-11-16T00:35:30.489Z,45.42
2022-11-16T00:35:52.293Z,47.85
2022-11-16T00:36:14.659Z,44.67
2022-11-16T00:36:36.500Z,45.92
2022-11-16T00:36:58.358Z,50.55
2022-11-16T00:37:20.102Z,47.83
2022-11-16T00:37:41.901Z,46.90
2022-11-16T00:38:04.067Z,46.83
2022-11-16T00:38:25.899Z,50.13
2022-11-16T00:38:48.710Z,48.70
2022-11-16T00:39:15.047Z,46.00
2022-11-16T00:39:37.316Z,47.45
2022-11-16T00:40:00.354Z,47.50
2022-11-16T00:40:22.314Z,50.17
2022-11-16T00:40:44.221Z,45.25
2022-11-16T00:41:06.485Z,48.22
2022-11-16T00:41:28.613Z,48.15
2022-11-16T00:41:51.059Z,43.95
2022-11-16T00:42:13.399Z,44.92
2022-11-16T00:42:35.140Z,47.13
2022-11-16T00:42:56.956Z,47.00
2022-11-16T00:43:18.727Z,45.38
2022-11-16T00:43:40.515Z,43.40
2022-11-16T00:44:02.724Z,41.50
2022-11-16T00:44:24.870Z,44.47
2022-11-16T00:44:47.037Z,42.85
2022-11-16T00:45:09.517Z,44.28
2022-11-16T00:45:31.718Z,42.97
2022-11-16T00:45:54.057Z,44.20
2022-11-16T00:46:15.872Z,43.13
2022-11-16T00:46:38.199Z,42.60
2022-11-16T00:46:59.947Z,41.63
2022-11-16T00:47:22.583Z,44.63
2022-11-16T00:47:44.563Z,44.15
2022-11-16T00:48:06.544Z,42.42
2022-11-16T00:48:28.765Z,41.17
2022-11-16T00:48:50.916Z,39.92
2022-11-16T00:49:12.705Z,40.88
2022-11-16T00:49:34.500Z,43.97
2022-11-16T00:49:56.257Z,46.80
2022-11-16T00:50:18.195Z,43.22
2022-11-16T00:50:40.222Z,39.25
2022-11-16T00:51:01.983Z,41.13
2022-11-16T00:51:23.776Z,43.20
2022-11-16T00:51:45.514Z,41.85
2022-11-16T00:52:07.300Z,40.60
2022-11-16T00:52:29.123Z,42.90
2022-11-16T00:52:50.958Z,42.95
2022-11-16T00:53:14.726Z,42.20
2022-11-16T00:53:36.859Z,42.13
2022-11-16T00:53:58.612Z,39.25
2022-11-16T00:54:20.354Z,41.80
2022-11-16T00:54:42.515Z,43.83
2022-11-16T00:55:04.619Z,40.75
2022-11-16T00:55:26.429Z,41.40
2022-11-16T00:55:49.094Z,41.83
2022-11-16T00:56:10.893Z,44.38
2022-11-16T00:56:32.801Z,41.60
2022-11-16T00:56:54.531Z,39.47
2022-11-16T00:57:16.309Z,40.03
2022-11-16T00:57:38.056Z,41.75
2022-11-16T00:58:00.045Z,45.08
2022-11-16T00:58:22.104Z,39.10
2022-11-16T00:58:43.871Z,43.40
2022-11-16T00:59:06.006Z,41.67
2022-11-16T00:59:27.820Z,39.28
2022-11-16T00:59:49.741Z,41.38
2022-11-16T01:00:11.989Z,41.38
2022-11-16T01:00:33.775Z,39.53
2022-11-16T01:00:55.664Z,41.28
2022-11-16T01:01:17.994Z,40.35
2022-11-16T01:01:39.861Z,40.72
2022-11-16T01:02:01.748Z,40.40
2022-11-16T01:02:23.550Z,38.88
2022-11-16T01:02:45.364Z,42.42
2022-11-16T01:03:07.350Z,40.08
2022-11-16T01:03:29.488Z,41.08
2022-11-16T01:03:51.307Z,40.65
2022-11-16T01:04:13.092Z,40.42
2022-11-16T01:04:34.901Z,41.17
2022-11-16T01:04:57.110Z,41.40
2022-11-16T01:05:19.101Z,40.88
2022-11-16T01:05:40.934Z,43.05
2022-11-16T01:06:07.232Z,41.78
2022-11-16T01:06:29.429Z,41.42
2022-11-16T01:06:51.697Z,39.90
2022-11-16T01:07:13.626Z,39.38
2022-11-16T01:07:39.653Z,40.05
2022-11-16T01:08:01.848Z,39.97
2022-11-16T01:08:23.986Z,41.13
2022-11-16T01:08:46.262Z,40.10
2022-11-16T01:09:08.008Z,42.65
2022-11-16T01:09:29.808Z,40.05
2022-11-16T01:09:51.579Z,39.63
2022-11-16T01:10:15.562Z,39.95
2022-11-16T01:10:39.831Z,41.17
2022-11-16T01:11:20.529Z,39.30
2022-11-16T01:12:00.986Z,39.58
2022-11-16T01:12:22.819Z,40.20
2022-11-16T01:12:46.349Z,40.53
2022-11-16T01:13:08.087Z,40.28
2022-11-16T01:13:29.808Z,45.33
2022-11-16T01:13:52.215Z,44.22
2022-11-16T01:14:13.992Z,40.85
2022-11-16T01:14:40.248Z,42.08
2022-11-16T01:15:02.417Z,40.17
2022-11-16T01:15:26.138Z,41.42
2022-11-16T01:15:48.674Z,39.10
2022-11-16T01:16:14.419Z,40.03
2022-11-16T01:16:36.389Z,44.83
2022-11-16T01:16:58.151Z,42.13
2022-11-16T01:17:19.901Z,38.95
2022-11-16T01:17:42.091Z,39.75
2022-11-16T01:18:04.267Z,44.55
2022-11-16T01:18:26.047Z,42.72
2022-11-16T01:18:48.808Z,39.83
2022-11-16T01:19:10.808Z,41.42
2022-11-16T01:19:32.781Z,40.08
2022-11-16T01:19:54.627Z,37.45
2022-11-16T01:20:19.213Z,40.85
2022-11-16T01:20:41.648Z,39.42
2022-11-16T01:21:06.514Z,39.88
2022-11-16T01:21:28.717Z,42.25
2022-11-16T01:21:50.462Z,40.45
2022-11-16T01:22:12.209Z,40.47
2022-11-16T01:22:37.374Z,41.53
2022-11-16T01:22:59.156Z,40.17
2022-11-16T01:23:20.900Z,42.80
2022-11-16T01:23:43.226Z,36.78
2022-11-16T01:24:05.350Z,38.70
2022-11-16T01:24:27.931Z,41.22
2022-11-16T01:24:49.666Z,41.67
2022-11-16T01:25:12.544Z,40.10
2022-11-16T01:25:34.681Z,43.20
2022-11-16T01:25:58.490Z,42.50
2022-11-16T01:26:21.456Z,39.08
2022-11-16T01:26:43.325Z,37.28
2022-11-16T01:27:05.090Z,40.85
2022-11-16T01:27:27.666Z,42.50
2022-11-16T01:27:49.536Z,44.15
2022-11-16T01:28:11.658Z,37.38
2022-11-16T01:28:33.673Z,36.92
2022-11-16T01:28:55.644Z,38.47
2022-11-16T01:29:17.831Z,41.75
2022-11-16T01:29:40.000Z,41.42
2022-11-16T01:30:01.757Z,38.63
2022-11-16T01:30:23.578Z,40.53
2022-11-16T01:30:48.845Z,40.55
2022-11-16T01:31:11.213Z,40.25
2022-11-16T01:31:33.057Z,38.67
2022-11-16T01:31:55.890Z,39.63
2022-11-16T01:32:17.774Z,40.97
2022-11-16T01:32:39.949Z,34.92
2022-11-16T01:33:01.699Z,37.42
2022-11-16T01:33:23.957Z,39.20
2022-11-16T01:33:45.837Z,46.75
2022-11-16T01:34:07.622Z,42.22
2022-11-16T01:34:29.769Z,41.00
2022-11-16T01:34:51.983Z,42.40
2022-11-16T01:35:17.630Z,44.10
2022-11-16T01:35:43.464Z,38.00
2022-11-16T01:36:14.715Z,40.15
2022-11-16T01:36:36.830Z,42.22
2022-11-16T01:36:58.668Z,42.80
2022-11-16T01:37:20.662Z,42.28
2022-11-16T01:37:42.506Z,41.97
2022-11-16T01:38:05.061Z,40.08
2022-11-16T01:38:29.700Z,38.33
2022-11-16T01:38:52.381Z,37.25
2022-11-16T01:39:14.971Z,40.47
2022-11-16T01:39:37.190Z,40.95
2022-11-16T01:39:59.199Z,41.30
2022-11-16T01:40:21.356Z,42.08
2022-11-16T01:40:43.170Z,38.47
2022-11-16T01:41:04.985Z,40.30
2022-11-16T01:41:27.218Z,45.15
2022-11-16T01:41:49.465Z,45.67
2022-11-16T01:42:18.095Z,41.42
2022-11-16T01:42:40.626Z,41.90
2022-11-16T01:43:02.366Z,41.83
2022-11-16T01:43:27.089Z,42.75
2022-11-16T01:43:57.551Z,38.83
2022-11-16T01:44:34.299Z,46.78
2022-11-16T01:45:18.874Z,40.72
2022-11-16T01:45:42.438Z,42.95
2022-11-16T01:46:04.195Z,42.00
2022-11-16T01:46:26.731Z,44.20
2022-11-16T01:46:48.858Z,42.20
2022-11-16T01:47:14.671Z,41.30
2022-11-16T01:47:36.876Z,41.65
2022-11-16T01:47:58.783Z,40.22
2022-11-16T01:48:26.385Z,40.75
2022-11-16T01:48:51.942Z,40.63
2022-11-16T01:49:14.953Z,41.28
2022-11-16T01:49:38.781Z,39.47
2022-11-16T01:50:11.531Z,42.30
2022-11-16T01:50:33.810Z,44.20
2022-11-16T01:50:57.750Z,37.17
2022-11-16T01:51:19.973Z,39.65
2022-11-16T01:51:55.415Z,40.65
2022-11-16T01:52:21.514Z,44.53
2022-11-16T01:52:46.927Z,42.63
2022-11-16T01:53:09.704Z,46.72
2022-11-16T01:53:31.654Z,45.22
2022-11-16T01:53:53.790Z,44.17
2022-11-16T01:54:16.093Z,44.33
2022-11-16T01:54:43.893Z,45.67
2022-11-16T01:55:06.267Z,42.65
2022-11-16T01:55:29.427Z,42.15
2022-11-16T01:55:54.277Z,42.33
2022-11-16T01:56:16.287Z,46.20
2022-11-16T01:56:39.524Z,49.08
2022-11-16T01:57:05.613Z,44.85
2022-11-16T01:57:32.590Z,44.70
2022-11-16T01:57:55.747Z,45.13
2022-11-16T01:58:23.267Z,44.80
2022-11-16T01:58:45.957Z,45.70
2022-11-16T01:59:08.171Z,44.90
2022-11-16T01:59:30.554Z,46.05
2022-11-16T01:59:56.641Z,42.58
2022-11-16T02:00:19.351Z,46.05
2022-11-16T02:00:41.260Z,49.70
2022-11-16T02:01:03.858Z,48.47
2022-11-16T02:01:25.798Z,48.92
2022-11-16T02:01:47.978Z,47.33
2022-11-16T02:02:09.756Z,46.75
2022-11-16T02:02:31.540Z,41.95
2022-11-16T02:02:53.515Z,44.70
2022-11-16T02:03:18.987Z,46.47
2022-11-16T02:03:40.841Z,47.47
2022-11-16T02:04:02.995Z,46.53
2022-11-16T02:04:24.768Z,43.83
2022-11-16T02:04:48.952Z,49.53
2022-11-16T02:07:19.470Z,49.45
2022-11-16T02:08:39.262Z,45.22
2022-11-16T02:09:20.160Z,48.83
2022-11-16T02:09:59.794Z,46.03
2022-11-16T02:10:28.243Z,50.67
2022-11-16T02:10:52.834Z,48.90
2022-11-16T02:11:53.325Z,47.28
2022-11-16T02:12:17.920Z,51.53
2022-11-16T02:12:57.659Z,50.55
2022-11-16T02:13:35.653Z,48.72
2022-11-16T02:14:10.816Z,48.17
2022-11-16T02:14:58.574Z,53.10
2022-11-16T02:15:28.276Z,47.22
2022-11-16T02:16:12.242Z,47.25
2022-11-16T02:16:52.761Z,53.70
2022-11-16T02:17:24.731Z,46.35
2022-11-16T02:18:26.288Z,47.17
2022-11-16T02:19:16.541Z,47.33
2022-11-16T02:20:11.579Z,51.30
2022-11-16T02:20:52.154Z,54.30
2022-11-16T02:21:59.313Z,50.57
2022-11-16T02:22:30.251Z,48.17
2022-11-16T02:23:21.467Z,53.60
2022-11-16T02:24:02.561Z,54.65
2022-11-16T02:24:26.831Z,52.50
2022-11-16T02:24:59.138Z,57.25
2022-11-16T02:25:30.003Z,54.83
2022-11-16T02:26:01.364Z,52.92
2022-11-16T02:26:26.102Z,52.80
2022-11-16T02:27:16.600Z,51.47
2022-11-16T02:27:59.368Z,54.63
2022-11-16T02:28:54.272Z,49.80
2022-11-16T02:29:37.685Z,53.90
2022-11-16T02:29:59.506Z,56.10
2022-11-16T02:30:22.124Z,54.35
2022-11-16T02:30:46.986Z,55.28
2022-11-16T02:31:13.747Z,51.38
2022-11-16T02:31:45.789Z,52.23
2022-11-16T02:32:19.274Z,52.55
2022-11-16T02:32:55.412Z,49.58
2022-11-16T02:33:20.941Z,50.58
2022-11-16T02:33:46.746Z,48.38
2022-11-16T02:34:11.706Z,50.22
2022-11-16T02:34:41.867Z,50.35
2022-11-16T02:35:27.029Z,48.83
2022-11-16T02:35:51.405Z,53.28
2022-11-16T02:36:17.798Z,48.80
2022-11-16T02:36:41.772Z,51.33
2022-11-16T02:37:05.729Z,52.30
2022-11-16T02:37:31.590Z,47.42
2022-11-16T02:38:05.147Z,50.60
2022-11-16T02:38:30.569Z,47.70
2022-11-16T02:39:02.179Z,49.60
2022-11-16T02:39:28.507Z,49.28
2022-11-16T02:39:54.575Z,47.08
2022-11-16T02:40:20.262Z,49.28
2022-11-16T02:40:44.834Z,48.45
2022-11-16T02:41:14.137Z,52.97
2022-11-16T02:41:40.462Z,48.95
2022-11-16T02:42:04.068Z,49.10
2022-11-16T02:42:49.516Z,49.80
2022-11-16T02:43:18.497Z,51.58
2022-11-16T02:43:43.432Z,49.50
2022-11-16T02:44:19.735Z,50.75
2022-11-16T02:44:44.497Z,50.10
2022-11-16T02:45:09.859Z,46.88
2022-11-16T02:45:36.469Z,46.58
2022-11-16T02:46:02.404Z,44.13
2022-11-16T02:46:31.005Z,47.88
2022-11-16T02:46:58.978Z,50.63
2022-11-16T02:47:24.237Z,51.67
2022-11-16T02:47:47.646Z,50.45
2022-11-16T02:48:28.185Z,52.03
2022-11-16T02:48:53.641Z,49.40
2022-11-16T02:49:18.875Z,52.03
2022-11-16T02:49:43.209Z,49.38
2022-11-16T02:50:07.658Z,51.80
2022-11-16T02:50:30.978Z,52.83
2022-11-16T02:50:54.073Z,53.25
2022-11-16T02:51:17.553Z,48.53
2022-11-16T02:51:40.845Z,51.25
2022-11-16T02:52:03.273Z,45.42
2022-11-16T02:52:26.714Z,47.03
2022-11-16T02:52:48.863Z,49.30
2022-11-16T02:53:10.998Z,51.10
2022-11-16T02:53:51.541Z,52.45
2022-11-16T02:54:19.469Z,50.65
2022-11-16T02:54:41.279Z,43.83
2022-11-16T02:55:03.727Z,49.50
2022-11-16T02:55:27.378Z,46.53
2022-11-16T02:55:49.620Z,52.03
2022-11-16T02:56:13.599Z,50.10
2022-11-16T02:56:55.722Z,45.92
2022-11-16T02:57:37.607Z,50.08
2022-11-16T02:58:02.651Z,47.25
2022-11-16T02:58:26.075Z,49.50
2022-11-16T02:58:48.190Z,51.72
2022-11-16T02:59:13.085Z,48.65
2022-11-16T02:59:40.884Z,49.85
2022-11-16T03:00:04.675Z,46.63
2022-11-16T03:00:29.213Z,50.75
2022-11-16T03:01:05.550Z,52.17
2022-11-16T03:01:34.452Z,45.20
2022-11-16T03:02:25.094Z,48.70
2022-11-16T03:02:56.981Z,47.47
2022-11-16T03:03:29.671Z,52.00
2022-11-16T03:03:58.822Z,50.85
2022-11-16T03:04:24.002Z,46.00
2022-11-16T03:04:52.431Z,45.83
2022-11-16T03:05:32.136Z,45.50
2022-11-16T03:05:59.174Z,44.78
2022-11-16T03:06:21.326Z,49.10
2022-11-16T03:06:47.870Z,45.10
2022-11-16T03:07:12.783Z,46.83
2022-11-16T03:07:59.389Z,40.35
2022-11-16T03:08:33.061Z,42.85
2022-11-16T03:09:04.409Z,43.90
2022-11-16T03:09:28.671Z,45.25
2022-11-16T03:09:52.063Z,44.60
2022-11-16T03:10:35.898Z,46.80
2022-11-16T03:11:20.358Z,46.28
2022-11-16T03:12:00.741Z,46.40
2022-11-16T03:12:28.900Z,48.35
2022-11-16T03:12:51.023Z,47.00
2022-11-16T03:13:15.874Z,46.30
2022-11-16T03:13:39.498Z,46.88
2022-11-16T03:14:06.721Z,47.65
2022-11-16T03:14:43.769Z,45.38
2022-11-16T03:15:06.567Z,49.70
2022-11-16T03:15:29.573Z,50.05
2022-11-16T03:15:54.726Z,46.17
2022-11-16T03:16:21.637Z,43.70
2022-11-16T03:17:05.432Z,46.05
2022-11-16T03:17:46.449Z,44.78
2022-11-16T03:18:09.299Z,45.83
2022-11-16T03:18:31.476Z,44.38
2022-11-16T03:18:56.580Z,45.30
2022-11-16T03:19:25.843Z,45.40
2022-11-16T03:20:09.150Z,43.67
2022-11-16T03:20:33.932Z,40.28
2022-11-16T03:21:29.476Z,44.88
2022-11-16T03:22:07.182Z,50.20
2022-11-16T03:22:43.715Z,42.83
2022-11-16T03:23:10.863Z,44.60
2022-11-16T03:23:33.150Z,44.10
2022-11-16T03:23:54.977Z,41.28
2022-11-16T03:24:16.914Z,42.53
2022-11-16T03:24:39.155Z,39.92
2022-11-16T03:25:00.985Z,42.13
2022-11-16T03:25:25.890Z,41.20
2022-11-16T03:25:55.604Z,40.70
2022-11-16T03:26:23.057Z,43.22
2022-11-16T03:26:51.634Z,45.88
2022-11-16T03:27:37.141Z,45.17
2022-11-16T03:28:01.732Z,44.38
2022-11-16T03:28:43.501Z,44.47
2022-11-16T03:29:28.553Z,42.08
2022-11-16T03:30:23.307Z,41.67
2022-11-16T03:31:02.599Z,40.05
2022-11-16T03:31:29.720Z,43.30
2022-11-16T03:31:57.168Z,41.95
2022-11-16T03:32:45.983Z,43.47
2022-11-16T03:33:17.426Z,44.50
2022-11-16T03:33:48.548Z,41.47
2022-11-16T03:34:16.233Z,43.25
2022-11-16T03:34:41.525Z,41.20
2022-11-16T03:35:10.757Z,44.08
2022-11-16T03:35:59.215Z,40.63
2022-11-16T03:36:24.388Z,43.72
2022-11-16T03:36:50.005Z,39.28
2022-11-16T03:37:12.741Z,40.72
2022-11-16T03:37:36.270Z,40.53
2022-11-16T03:37:59.959Z,38.57
2022-11-16T03:38:24.646Z,39.30
2022-11-16T03:38:47.856Z,40.35
2022-11-16T03:39:12.556Z,40.42
2022-11-16T03:39:38.514Z,41.58
2022-11-16T03:40:01.959Z,37.85
2022-11-16T03:40:26.267Z,41.47
2022-11-16T03:40:50.108Z,42.38
2022-11-16T03:41:14.021Z,41.72
2022-11-16T03:41:40.879Z,40.33
2022-11-16T03:42:05.108Z,37.38
2022-11-16T03:42:27.699Z,40.55
2022-11-16T03:42:50.081Z,41.58
2022-11-16T03:43:12.085Z,39.13
2022-11-16T03:43:34.662Z,38.08
2022-11-16T03:43:57.771Z,40.70
2022-11-16T03:44:20.747Z,41.03
2022-11-16T03:44:43.809Z,41.75
2022-11-16T03:45:06.772Z,41.65
2022-11-16T03:45:30.091Z,40.88
2022-11-16T03:45:52.140Z,37.35
2022-11-16T03:46:14.958Z,40.95
2022-11-16T03:46:37.031Z,39.83
2022-11-16T03:46:59.080Z,40.25
2022-11-16T03:47:20.994Z,40.65
2022-11-16T03:47:43.264Z,40.63
2022-11-16T03:48:06.986Z,42.55
2022-11-16T03:48:40.036Z,38.55
2022-11-16T03:49:02.252Z,39.65
2022-11-16T03:49:24.288Z,40.47
2022-11-16T03:49:47.646Z,39.78
2022-11-16T03:50:10.235Z,35.13
2022-11-16T03:50:32.027Z,39.65
2022-11-16T03:50:53.770Z,39.00
2022-11-16T03:51:15.886Z,39.30
2022-11-16T03:51:38.023Z,37.47
2022-11-16T03:51:59.815Z,36.55
2022-11-16T03:52:21.940Z,34.17
2022-11-16T03:52:43.789Z,36.58
2022-11-16T03:53:05.588Z,36.65
2022-11-16T03:53:27.303Z,35.00
2022-11-16T03:53:49.411Z,35.42
2022-11-16T03:54:11.155Z,36.10
2022-11-16T03:54:33.075Z,36.63
2022-11-16T03:54:54.792Z,36.92
2022-11-16T03:55:16.544Z,34.47
2022-11-16T03:55:38.287Z,37.78
2022-11-16T03:56:00.475Z,35.25
2022-11-16T03:56:22.594Z,33.05
2022-11-16T03:56:44.339Z,36.88
2022-11-16T03:57:06.075Z,35.70
2022-11-16T03:57:27.977Z,35.17
2022-11-16T03:57:49.768Z,34.00
2022-11-16T03:58:11.936Z,33.80
2022-11-16T03:58:33.874Z,35.30
2022-11-16T03:58:56.237Z,31.90
2022-11-16T03:59:17.938Z,34.10
2022-11-16T03:59:39.632Z,33.25
2022-11-16T04:00:01.696Z,33.70
2022-11-16T04:00:23.452Z,32.88
2022-11-16T04:00:45.988Z,37.20
2022-11-16T04:01:08.216Z,35.88
2022-11-16T04:01:30.441Z,34.58
2022-11-16T04:01:52.698Z,35.28
2022-11-16T04:02:14.925Z,37.55
2022-11-16T04:02:36.696Z,35.97
2022-11-16T04:02:58.413Z,34.58
2022-11-16T04:03:21.033Z,33.13
2022-11-16T04:03:43.213Z,34.08
2022-11-16T04:04:05.476Z,34.58
2022-11-16T04:04:45.767Z,31.95
2022-11-16T04:05:43.431Z,32.80
2022-11-16T04:06:24.091Z,32.95
2022-11-16T04:07:04.190Z,35.03
2022-11-16T04:07:44.705Z,32.42
2022-11-16T04:08:25.162Z,31.17
2022-11-16T04:09:05.442Z,35.55
2022-11-16T04:09:45.767Z,30.92
2022-11-16T04:10:28.702Z,35.28
2022-11-16T04:11:09.181Z,34.63
2022-11-16T04:11:50.181Z,32.95
2022-11-16T04:12:30.642Z,33.97
2022-11-16T04:13:11.485Z,31.45
2022-11-16T04:13:52.517Z,33.78
2022-11-16T04:14:35.951Z,30.90
2022-11-16T04:15:17.966Z,34.80
2022-11-16T04:15:58.239Z,32.03
2022-11-16T04:16:38.817Z,34.90
2022-11-16T04:17:19.196Z,34.30
2022-11-16T04:17:59.844Z,30.25
2022-11-16T04:18:40.767Z,31.80
2022-11-16T04:19:21.143Z,33.88
2022-11-16T04:20:01.567Z,33.95
2022-11-16T04:20:53.223Z,32.08
2022-11-16T04:21:38.598Z,34.13
2022-11-16T04:22:23.260Z,37.35
2022-11-16T04:23:09.205Z,35.40
2022-11-16T04:23:49.589Z,33.45
2022-11-16T04:24:17.023Z,36.78
2022-11-16T04:24:43.690Z,36.22
2022-11-16T04:25:19.052Z,35.20
2022-11-16T04:25:43.686Z,36.00
2022-11-16T04:26:08.374Z,37.10
2022-11-16T04:26:55.899Z,33.53
2022-11-16T04:27:37.069Z,36.15
2022-11-16T04:28:14.237Z,36.40
2022-11-16T04:28:37.068Z,35.75
2022-11-16T04:28:59.389Z,36.15
2022-11-16T04:29:21.198Z,33.50
2022-11-16T04:29:43.267Z,31.00
2022-11-16T04:30:05.720Z,36.78
2022-11-16T04:30:47.590Z,34.83
2022-11-16T04:31:28.501Z,33.63
2022-11-16T04:32:08.652Z,32.88
2022-11-16T04:32:48.900Z,34.25
2022-11-16T04:33:29.819Z,35.00
2022-11-16T04:34:11.293Z,34.50
2022-11-16T04:34:51.672Z,39.85
2022-11-16T04:35:32.054Z,32.95
2022-11-16T04:36:16.549Z,37.22
2022-11-16T04:37:00.562Z,32.28
2022-11-16T04:37:41.018Z,33.78
2022-11-16T04:38:02.716Z,34.40
2022-11-16T04:38:24.877Z,32.15
2022-11-16T04:38:46.579Z,32.10
2022-11-16T04:39:08.430Z,35.17
2022-11-16T04:39:30.155Z,32.20
2022-11-16T04:39:51.879Z,33.42
2022-11-16T04:40:14.224Z,34.40
2022-11-16T04:40:36.031Z,34.90
2022-11-16T04:40:57.757Z,32.47
2022-11-16T04:41:38.179Z,32.30
2022-11-16T04:42:15.258Z,35.08
2022-11-16T04:42:37.004Z,30.52
2022-11-16T04:43:00.407Z,31.67
2022-11-16T04:43:22.543Z,33.60
2022-11-16T04:43:44.255Z,32.83
2022-11-16T04:44:06.126Z,32.60
2022-11-16T04:44:50.944Z,32.70
2022-11-16T04:45:31.529Z,31.35
2022-11-16T04:46:11.822Z,31.13
2022-11-16T04:46:52.348Z,29.33
2022-11-16T04:47:14.069Z,32.00
2022-11-16T04:47:35.917Z,33.22
2022-11-16T04:47:57.716Z,32.88
2022-11-16T04:48:20.552Z,29.92
2022-11-16T04:48:42.236Z,28.70
2022-11-16T04:49:04.357Z,29.90
2022-11-16T04:49:26.485Z,29.77
2022-11-16T04:49:48.285Z,32.33
2022-11-16T04:50:10.353Z,32.72
2022-11-16T04:50:32.551Z,29.92
2022-11-16T04:50:54.667Z,29.63
2022-11-16T04:51:16.385Z,31.60
2022-11-16T04:51:38.584Z,30.07
2022-11-16T04:52:00.582Z,29.90
2022-11-16T04:52:22.316Z,31.77
2022-11-16T04:52:44.041Z,32.42
2022-11-16T04:53:06.670Z,32.70
2022-11-16T04:53:28.393Z,30.08
2022-11-16T04:53:50.091Z,27.98
2022-11-16T04:54:12.338Z,28.80
2022-11-16T04:54:34.131Z,28.00
2022-11-16T04:54:56.317Z,26.20
2022-11-16T04:55:18.122Z,26.05
2022-11-16T04:55:39.834Z,27.08
2022-11-16T04:56:01.523Z,28.10
2022-11-16T04:56:23.211Z,28.25
2022-11-16T04:56:44.980Z,28.03
2022-11-16T04:57:06.728Z,25.92
2022-11-16T04:57:28.551Z,27.30
2022-11-16T04:57:50.354Z,30.20
2022-11-16T04:58:12.082Z,27.15
2022-11-16T04:58:34.096Z,27.27
2022-11-16T04:58:56.008Z,30.52
2022-11-16T04:59:18.193Z,31.23
2022-11-16T04:59:40.325Z,29.67
2022-11-16T05:00:02.644Z,28.92
2022-11-16T05:00:24.935Z,31.02
2022-11-16T05:00:46.677Z,30.55
2022-11-16T05:01:08.812Z,29.42
2022-11-16T05:01:49.354Z,29.88
2022-11-16T05:02:11.709Z,29.45
2022-11-16T05:02:33.518Z,29.25
2022-11-16T05:03:00.757Z,31.58
2022-11-16T05:03:23.579Z,26.23
2022-11-16T05:03:45.287Z,26.90
2022-11-16T05:04:06.984Z,30.33
2022-11-16T05:04:29.138Z,31.23
2022-11-16T05:04:50.849Z,31.15
2022-11-16T05:05:13.376Z,29.60
2022-11-16T05:05:35.187Z,32.42
2022-11-16T05:05:57.291Z,35.80
2022-11-16T05:06:19.002Z,30.95
2022-11-16T05:06:40.800Z,29.52
2022-11-16T05:07:02.726Z,28.98
2022-11-16T05:07:25.057Z,31.15
2022-11-16T05:07:46.952Z,30.67
2022-11-16T05:08:09.321Z,30.30
2022-11-16T05:08:31.497Z,30.50
2022-11-16T05:08:53.480Z,31.27
2022-11-16T05:09:15.622Z,31.70
2022-11-16T05:09:42.812Z,29.23
2022-11-16T05:10:06.753Z,29.50
2022-11-16T05:10:28.511Z,29.95
2022-11-16T05:10:53.262Z,29.45
2022-11-16T05:11:14.974Z,27.42
2022-11-16T05:11:36.699Z,30.38
2022-11-16T05:11:58.470Z,27.75
2022-11-16T05:12:24.933Z,26.65
2022-11-16T05:12:47.039Z,28.25
2022-11-16T05:13:08.739Z,26.83
2022-11-16T05:13:30.907Z,27.42
2022-11-16T05:13:52.621Z,27.25
2022-11-16T05:14:14.361Z,29.13
2022-11-16T05:14:36.395Z,26.00
2022-11-16T05:14:58.578Z,25.50
2022-11-16T05:15:20.385Z,24.70
2022-11-16T05:15:45.631Z,22.70
2022-11-16T05:16:07.935Z,21.40
2022-11-16T05:16:30.709Z,20.65
2022-11-16T05:16:52.461Z,21.50
2022-11-16T05:17:14.972Z,20.70
2022-11-16T05:17:36.919Z,21.05
2022-11-16T05:17:58.788Z,20.67
2022-11-16T05:18:20.939Z,21.75
2022-11-16T05:18:43.110Z,21.15
2022-11-16T05:19:23.670Z,18.02
2022-11-16T05:20:04.751Z,20.40
2022-11-16T05:20:45.612Z,19.45
2022-11-16T05:21:07.381Z,18.75
2022-11-16T05:21:29.169Z,18.67
2022-11-16T05:21:50.947Z,16.50
2022-11-16T05:22:12.652Z,17.67
2022-11-16T05:22:35.008Z,16.35
2022-11-16T05:22:57.964Z,17.45
2022-11-16T05:23:38.839Z,15.48
2022-11-16T05:24:19.443Z,15.98
2022-11-16T05:24:41.356Z,13.80
2022-11-16T05:25:04.312Z,13.32
2022-11-16T05:25:26.803Z,14.40
2022-11-16T05:25:48.518Z,15.77
2022-11-16T05:26:10.723Z,13.55
2022-11-16T05:26:32.835Z,16.52
2022-11-16T05:26:54.553Z,14.05
2022-11-16T05:27:18.031Z,12.43
2022-11-16T05:27:39.986Z,11.10
2022-11-16T05:28:03.040Z,16.13
2022-11-16T05:28:24.845Z,13.25
2022-11-16T05:28:46.579Z,13.27
2022-11-16T05:29:08.372Z,16.90
2022-11-16T05:29:31.022Z,12.68
2022-11-16T05:29:53.384Z,15.45
2022-11-16T05:30:15.529Z,14.50
2022-11-16T05:30:37.274Z,13.60
2022-11-16T05:30:58.971Z,13.88
2022-11-16T05:31:20.697Z,13.82
2022-11-16T05:31:42.414Z,13.60
2022-11-16T05:32:04.969Z,12.32
2022-11-16T05:32:27.837Z,13.40
2022-11-16T05:32:49.967Z,14.00
2022-11-16T05:33:11.760Z,15.07
2022-11-16T05:33:33.485Z,14.02
2022-11-16T05:33:55.224Z,14.48
2022-11-16T05:34:17.024Z,15.73
2022-11-16T05:34:38.982Z,16.67
2022-11-16T05:35:00.768Z,17.83
2022-11-16T05:35:24.067Z,13.77
2022-11-16T05:35:45.818Z,14.80
2022-11-16T05:36:08.209Z,16.23
2022-11-16T05:36:30.029Z,13.15
2022-11-16T05:36:51.946Z,13.32
2022-11-16T05:37:13.993Z,13.65
2022-11-16T05:37:35.796Z,13.30
2022-11-16T05:37:57.490Z,13.70